createdAt,value
2022-09-16T00:01:52.334Z,67.55
2022-09-16T00:04:19.108Z,67.21
2022-09-16T00:06:45.710Z,67.82
2022-09-16T00:09:12.329Z,68.43
2022-09-16T00:11:39.004Z,68.80
2022-09-16T00:14:05.753Z,69.35
2022-09-16T00:16:32.524Z,69.13
2022-09-16T00:19:00.995Z,68.82
2022-09-16T00:21:28.899Z,68.65
2022-09-16T00:23:56.634Z,67.65
2022-09-16T00:26:24.139Z,67.54
2022-09-16T00:28:50.870Z,67.61
2022-09-16T00:31:18.423Z,69.60
2022-09-16T00:33:45.090Z,70.03
2022-09-16T00:36:14.321Z,70.36
2022-09-16T00:38:41.686Z,71.12
2022-09-16T00:41:14.506Z,70.58
2022-09-16T00:43:51.286Z,71.50
2022-09-16T00:46:23.102Z,71.74
2022-09-16T00:48:50.039Z,70.48
2022-09-16T00:51:17.776Z,70.90
2022-09-16T00:53:52.127Z,72.25
2022-09-16T00:56:23.764Z,72.89
2022-09-16T00:59:02.472Z,72.78
2022-09-16T01:01:33.214Z,72.59
2022-09-16T01:04:04.493Z,73.23
2022-09-16T01:06:34.856Z,73.32
2022-09-16T01:09:02.687Z,73.75
2022-09-16T01:11:29.457Z,75.56
2022-09-16T01:14:17.094Z,75.95
2022-09-16T01:16:50.267Z,75.85
2022-09-16T01:19:55.663Z,75.01
2022-09-16T01:23:10.395Z,74.53
2022-09-16T01:25:58.740Z,74.72
2022-09-16T01:29:06.851Z,75.41
2022-09-16T01:31:54.691Z,75.10
2022-09-16T01:34:30.711Z,73.63
2022-09-16T01:37:25.807Z,73.96
2022-09-16T01:40:17.164Z,74.21
2022-09-16T01:42:43.914Z,74.47
2022-09-16T01:45:35.640Z,74.57
2022-09-16T01:48:32.416Z,74.82
2022-09-16T01:51:08.154Z,74.04
2022-09-16T01:53:47.026Z,73.99
2022-09-16T01:56:26.336Z,73.75
2022-09-16T01:59:08.972Z,74.33
2022-09-16T02:01:54.922Z,74.05
2022-09-16T02:04:33.087Z,73.94
2022-09-16T02:07:03.871Z,74.07
2022-09-16T02:09:35.024Z,74.15
2022-09-16T02:12:07.049Z,74.76
2022-09-16T02:14:42.756Z,75.27
2022-09-16T02:17:11.871Z,76.19
2022-09-16T02:19:41.506Z,76.40
2022-09-16T02:22:15.554Z,76.24
2022-09-16T02:24:44.864Z,76.62
2022-09-16T02:27:16.935Z,77.44
2022-09-16T02:29:55.573Z,78.21
2022-09-16T02:32:25.712Z,78.58
2022-09-16T02:34:54.709Z,79.22
2022-09-16T02:37:21.351Z,79.29
2022-09-16T02:39:55.848Z,77.10
2022-09-16T02:42:22.642Z,75.79
2022-09-16T02:44:49.959Z,76.73
2022-09-16T02:47:30.606Z,76.75
2022-09-16T02:50:16.395Z,77.30
2022-09-16T02:52:52.443Z,77.51
2022-09-16T02:55:50.725Z,77.68
2022-09-16T02:58:17.572Z,78.05
2022-09-16T03:00:48.434Z,79.18
2022-09-16T03:03:15.665Z,79.94
2022-09-16T03:06:06.743Z,80.54
2022-09-16T03:08:35.336Z,80.34
2022-09-16T03:11:18.604Z,79.83
2022-09-16T03:14:06.679Z,80.26
2022-09-16T03:16:41.596Z,79.55
2022-09-16T03:19:26.438Z,79.20
2022-09-16T03:22:01.904Z,78.12
2022-09-16T03:24:50.727Z,77.96
2022-09-16T03:27:23.195Z,79.51
2022-09-16T03:30:08.046Z,78.83
2022-09-16T03:32:56.785Z,80.07
2022-09-16T03:35:39.010Z,80.88
2022-09-16T03:38:08.512Z,80.97
2022-09-16T03:40:36.342Z,80.62
2022-09-16T03:43:13.402Z,81.22
2022-09-16T03:45:42.932Z,81.03
2022-09-16T03:48:10.623Z,82.15
2022-09-16T03:50:37.389Z,81.63
2022-09-16T03:53:04.506Z,82.07
2022-09-16T03:55:31.313Z,82.73
2022-09-16T03:57:57.942Z,82.68
2022-09-16T04:00:24.579Z,83.84
2022-09-16T04:02:51.271Z,84.71
2022-09-16T04:05:17.949Z,84.76
2022-09-16T04:07:44.632Z,83.49
2022-09-16T04:10:12.543Z,83.68
2022-09-16T04:12:39.457Z,84.47
2022-09-16T04:15:06.669Z,82.50
2022-09-16T04:17:34.092Z,83.04
2022-09-16T04:20:01.092Z,83.78
2022-09-16T04:22:31.733Z,83.31
2022-09-16T04:24:59.077Z,82.76
2022-09-16T04:27:25.950Z,82.75
2022-09-16T04:29:52.514Z,78.73
2022-09-16T04:32:19.139Z,78.42
2022-09-16T04:34:45.746Z,79.53
2022-09-16T04:37:12.358Z,78.64
2022-09-16T04:39:38.981Z,78.53
2022-09-16T04:42:06.273Z,78.70
2022-09-16T04:44:32.966Z,77.89
2022-09-16T04:47:00.025Z,77.74
2022-09-16T04:49:26.655Z,78.24
2022-09-16T04:51:53.291Z,77.64
2022-09-16T04:54:19.887Z,77.30
2022-09-16T04:56:46.908Z,77.78
2022-09-16T04:59:13.570Z,77.17
2022-09-16T05:01:40.714Z,77.75
2022-09-16T05:04:07.945Z,77.78
2022-09-16T05:06:37.083Z,78.29
2022-09-16T05:09:04.829Z,77.96
2022-09-16T05:11:37.362Z,78.33
2022-09-16T05:14:07.239Z,78.09
2022-09-16T05:16:34.361Z,77.01
2022-09-16T05:19:04.913Z,76.53
2022-09-16T05:21:35.083Z,76.66
2022-09-16T05:24:03.633Z,75.70
2022-09-16T05:26:32.032Z,75.21
2022-09-16T05:29:04.286Z,75.49
2022-09-16T05:31:33.606Z,75.04
2022-09-16T05:34:06.703Z,74.27
2022-09-16T05:36:35.767Z,73.19
2022-09-16T05:39:22.277Z,72.65
2022-09-16T05:41:49.669Z,71.91
2022-09-16T05:44:16.346Z,71.58
2022-09-16T05:46:43.847Z,71.46
2022-09-16T05:49:10.813Z,70.26
2022-09-16T05:51:38.863Z,69.59
2022-09-16T05:54:05.654Z,70.25
2022-09-16T05:56:32.405Z,70.16
2022-09-16T05:59:00.405Z,69.71
2022-09-16T06:01:31.258Z,69.43
2022-09-16T06:04:01.194Z,69.57
2022-09-16T06:06:31.162Z,67.99
2022-09-16T06:09:07.287Z,68.03
2022-09-16T06:11:38.265Z,67.40
2022-09-16T06:14:06.178Z,66.64
2022-09-16T06:16:33.513Z,67.58
2022-09-16T06:19:06.124Z,67.14
2022-09-16T06:21:32.872Z,67.02
2022-09-16T06:24:00.021Z,66.53
2022-09-16T06:26:27.865Z,65.57
2022-09-16T06:28:55.226Z,65.61
2022-09-16T06:31:24.673Z,65.57
2022-09-16T06:33:52.146Z,64.59
2022-09-16T06:36:31.114Z,63.73
2022-09-16T06:38:57.785Z,62.85
2022-09-16T06:41:25.031Z,63.42
2022-09-16T06:43:52.047Z,62.18
2022-09-16T06:46:21.465Z,62.81
2022-09-16T06:48:53.015Z,61.54
2022-09-16T06:51:23.957Z,59.23
2022-09-16T06:53:51.784Z,59.78
2022-09-16T06:56:19.661Z,59.23
2022-09-16T06:58:48.368Z,58.44
2022-09-16T07:01:17.595Z,57.87
2022-09-16T07:03:48.241Z,57.78
2022-09-16T07:06:16.547Z,57.21
2022-09-16T07:08:44.019Z,57.52
2022-09-16T07:11:15.893Z,56.86
2022-09-16T07:13:43.723Z,56.11
2022-09-16T07:16:13.990Z,55.40
2022-09-16T07:18:42.262Z,55.14
2022-09-16T07:21:16.090Z,54.26
2022-09-16T07:23:43.799Z,55.51
2022-09-16T07:26:13.945Z,55.85
2022-09-16T07:28:42.001Z,54.40
2022-09-16T07:31:12.480Z,54.69
2022-09-16T07:33:41.307Z,54.09
2022-09-16T07:36:10.205Z,54.21
2022-09-16T07:38:37.332Z,53.19
2022-09-16T07:41:12.121Z,52.77
2022-09-16T07:43:40.370Z,51.98
2022-09-16T07:46:08.398Z,50.76
2022-09-16T07:48:35.467Z,51.25
2022-09-16T07:51:09.173Z,51.04
2022-09-16T07:53:36.673Z,50.14
2022-09-16T07:56:06.440Z,50.30
2022-09-16T07:58:33.388Z,49.11
2022-09-16T08:01:04.626Z,49.45
2022-09-16T08:03:41.615Z,48.83
2022-09-16T08:06:12.691Z,49.06
2022-09-16T08:08:39.477Z,48.21
2022-09-16T08:11:07.596Z,48.25
2022-09-16T08:13:35.957Z,47.16
2022-09-16T08:16:06.869Z,46.45
2022-09-16T08:18:34.568Z,46.04
2022-09-16T08:21:15.332Z,45.12
2022-09-16T08:23:42.760Z,45.13
2022-09-16T08:26:10.898Z,44.25
2022-09-16T08:28:45.438Z,45.49
2022-09-16T08:31:24.642Z,43.86
2022-09-16T08:33:51.405Z,44.08
2022-09-16T08:36:21.121Z,45.00
2022-09-16T08:38:49.938Z,43.69
2022-09-16T08:41:32.029Z,43.03
2022-09-16T08:44:32.052Z,43.40
2022-09-16T08:47:06.367Z,44.06
2022-09-16T08:49:46.855Z,42.92
2022-09-16T08:52:26.927Z,42.99
2022-09-16T08:54:58.791Z,43.14
2022-09-16T08:57:29.191Z,42.75
2022-09-16T09:00:00.465Z,42.51
2022-09-16T09:02:38.891Z,41.37
2022-09-16T09:05:20.794Z,42.35
2022-09-16T09:07:56.487Z,41.00
2022-09-16T09:10:40.001Z,42.05
2022-09-16T09:13:37.045Z,41.34
2022-09-16T09:16:18.384Z,40.36
2022-09-16T09:19:03.218Z,40.41
2022-09-16T09:21:52.088Z,40.50
2022-09-16T09:24:42.117Z,40.09
2022-09-16T09:27:21.449Z,40.93
2022-09-16T09:30:07.124Z,40.50
2022-09-16T09:32:49.523Z,40.46
2022-09-16T09:35:32.140Z,40.68
2022-09-16T09:38:15.303Z,39.91
2022-09-16T09:40:44.893Z,40.55
2022-09-16T09:43:20.443Z,41.20
2022-09-16T09:46:10.003Z,39.93
2022-09-16T09:48:48.166Z,40.50
2022-09-16T09:51:27.759Z,40.81
2022-09-16T09:54:00.580Z,40.91
2022-09-16T09:56:46.173Z,39.65
2022-09-16T09:59:22.170Z,39.92
2022-09-16T10:01:57.900Z,39.40
2022-09-16T10:04:24.945Z,39.54
2022-09-16T10:06:54.728Z,37.75
2022-09-16T10:09:22.608Z,37.72
2022-09-16T10:11:57.864Z,37.43
2022-09-16T10:14:36.676Z,37.23
2022-09-16T10:17:15.842Z,36.55
2022-09-16T10:19:51.592Z,35.56
2022-09-16T10:22:38.400Z,34.87
2022-09-16T10:25:21.525Z,34.39
2022-09-16T10:28:00.966Z,35.33
2022-09-16T10:30:29.600Z,34.78
2022-09-16T10:33:05.621Z,34.65
2022-09-16T10:35:35.540Z,34.62
2022-09-16T10:38:17.253Z,34.18
2022-09-16T10:41:01.312Z,33.20
2022-09-16T10:43:30.160Z,34.52
2022-09-16T10:45:58.612Z,33.39
2022-09-16T10:48:29.405Z,32.48
2022-09-16T10:51:01.266Z,33.13
2022-09-16T10:53:32.981Z,30.64
2022-09-16T10:56:05.186Z,30.47
2022-09-16T10:58:32.400Z,31.75
2022-09-16T11:01:02.208Z,32.16
2022-09-16T11:03:47.792Z,32.51
2022-09-16T11:06:28.675Z,31.98
2022-09-16T11:09:18.346Z,32.80
2022-09-16T11:12:00.119Z,32.73
2022-09-16T11:14:50.663Z,33.46
2022-09-16T11:17:23.190Z,32.29
2022-09-16T11:19:58.809Z,32.38
2022-09-16T11:23:06.921Z,32.25
2022-09-16T11:25:51.973Z,32.44
2022-09-16T11:28:49.782Z,32.98
2022-09-16T11:31:43.121Z,30.92
2022-09-16T11:34:20.716Z,31.24
2022-09-16T11:36:53.371Z,31.27
2022-09-16T11:39:46.398Z,30.34
2022-09-16T11:42:32.800Z,31.10
2022-09-16T11:45:27.465Z,30.57
2022-09-16T11:47:57.688Z,30.08
2022-09-16T11:50:46.173Z,30.63
2022-09-16T11:53:30.976Z,30.33
2022-09-16T11:56:09.764Z,29.77
2022-09-16T11:58:53.068Z,30.63
2022-09-16T12:01:42.630Z,31.06
2022-09-16T12:04:23.608Z,29.93
2022-09-16T12:06:57.327Z,31.12
2022-09-16T12:09:39.594Z,31.02
2022-09-16T12:12:13.464Z,30.98
2022-09-16T12:14:49.040Z,31.76
2022-09-16T12:17:26.952Z,30.95
2022-09-16T12:19:59.380Z,31.86
2022-09-16T12:22:33.936Z,31.32
2022-09-16T12:25:08.600Z,31.07
2022-09-16T12:27:38.202Z,30.67
2022-09-16T12:30:13.854Z,31.02
2022-09-16T12:32:49.365Z,31.45
2022-09-16T12:35:34.220Z,31.01
2022-09-16T12:38:01.106Z,31.35
2022-09-16T12:40:33.115Z,32.50
2022-09-16T12:43:21.578Z,32.19
2022-09-16T12:45:59.355Z,32.04
2022-09-16T12:48:35.239Z,32.15
2022-09-16T12:51:20.218Z,30.47
2022-09-16T12:53:49.283Z,30.90
2022-09-16T12:56:38.830Z,32.81
2022-09-16T12:59:16.865Z,33.77
2022-09-16T13:01:59.788Z,34.25
2022-09-16T13:04:33.304Z,33.71
2022-09-16T13:07:02.044Z,34.24
2022-09-16T13:09:41.700Z,34.04
2022-09-16T13:12:44.686Z,33.44
2022-09-16T13:15:25.791Z,32.16
2022-09-16T13:17:53.354Z,29.11
2022-09-16T13:20:32.345Z,29.03
2022-09-16T13:23:07.254Z,28.77
2022-09-16T13:25:56.078Z,28.05
2022-09-16T13:28:39.809Z,28.26
2022-09-16T13:31:16.575Z,31.05
2022-09-16T13:33:58.544Z,32.09
2022-09-16T13:36:28.652Z,32.32
2022-09-16T13:39:03.782Z,31.52
2022-09-16T13:41:47.271Z,28.87
2022-09-16T13:44:32.829Z,29.55
2022-09-16T13:47:12.189Z,28.39
2022-09-16T13:49:53.818Z,28.28
2022-09-16T13:52:42.648Z,28.59
2022-09-16T13:55:22.291Z,29.30
2022-09-16T13:58:29.576Z,27.79
2022-09-16T14:01:12.437Z,28.88
2022-09-16T14:03:53.765Z,28.53
2022-09-16T14:06:54.982Z,29.44
2022-09-16T14:09:44.146Z,29.38
2022-09-16T14:12:15.809Z,29.59
2022-09-16T14:14:47.336Z,29.61
2022-09-16T14:17:27.791Z,30.13
2022-09-16T14:19:59.453Z,30.04
2022-09-16T14:22:27.644Z,29.77
2022-09-16T14:25:05.897Z,30.47
2022-09-16T14:27:39.985Z,29.94
2022-09-16T14:30:14.751Z,30.60
2022-09-16T14:32:41.750Z,30.84
2022-09-16T14:35:23.047Z,29.89
2022-09-16T14:37:54.333Z,30.69
2022-09-16T14:40:25.066Z,31.28
2022-09-16T14:42:55.245Z,31.33
2022-09-16T14:45:22.582Z,31.02
2022-09-16T14:47:53.201Z,31.54
2022-09-16T14:50:43.078Z,31.78
2022-09-16T14:53:36.176Z,32.16
2022-09-16T14:56:04.867Z,31.94
2022-09-16T14:58:33.637Z,32.44
2022-09-16T15:01:12.296Z,32.39
2022-09-16T15:03:51.531Z,32.21
2022-09-16T15:06:22.964Z,32.35
2022-09-16T15:09:03.375Z,33.49
2022-09-16T15:11:50.494Z,33.53
2022-09-16T15:14:18.116Z,34.06
2022-09-16T15:16:47.031Z,33.37
2022-09-16T15:19:23.770Z,34.16
2022-09-16T15:21:51.147Z,34.79
2022-09-16T15:24:27.805Z,34.84
2022-09-16T15:26:55.808Z,35.37
2022-09-16T15:29:30.878Z,34.89
2022-09-16T15:32:27.478Z,34.97
2022-09-16T15:35:12.286Z,34.93
2022-09-16T15:37:39.268Z,34.95
2022-09-16T15:40:32.782Z,35.37
2022-09-16T15:43:24.518Z,36.15
2022-09-16T15:46:01.120Z,35.79
2022-09-16T15:48:36.762Z,36.27
2022-09-16T15:51:09.394Z,36.83
2022-09-16T15:53:45.349Z,36.05
2022-09-16T15:56:25.132Z,37.49
2022-09-16T15:58:58.270Z,36.66
2022-09-16T16:01:31.130Z,35.92
2022-09-16T16:04:00.396Z,37.69
2022-09-16T16:06:46.314Z,38.07
2022-09-16T16:09:29.930Z,37.92
2022-09-16T16:11:59.368Z,38.83
2022-09-16T16:14:32.313Z,38.65
2022-09-16T16:17:12.882Z,40.31
2022-09-16T16:19:45.928Z,40.46
2022-09-16T16:22:13.054Z,41.31
2022-09-16T16:24:40.179Z,39.90
2022-09-16T16:27:08.599Z,37.58
2022-09-16T16:29:35.436Z,38.16
2022-09-16T16:32:05.400Z,38.33
2022-09-16T16:34:40.420Z,38.38
2022-09-16T16:37:08.043Z,37.78
2022-09-16T16:39:35.547Z,37.32
2022-09-16T16:42:03.482Z,37.53
2022-09-16T16:44:29.927Z,36.94
2022-09-16T16:46:56.657Z,37.71
2022-09-16T16:49:23.887Z,37.51
2022-09-16T16:51:58.009Z,37.95
2022-09-16T16:54:25.007Z,38.58
2022-09-16T16:56:51.860Z,40.56
2022-09-16T16:59:19.138Z,40.10
2022-09-16T17:01:48.971Z,39.33
2022-09-16T17:04:16.107Z,39.76
2022-09-16T17:06:43.587Z,40.77
2022-09-16T17:09:15.516Z,39.46
2022-09-16T17:12:00.114Z,39.85
2022-09-16T17:14:29.773Z,40.13
2022-09-16T17:16:57.329Z,40.48
2022-09-16T17:19:25.918Z,40.22
2022-09-16T17:21:53.819Z,40.30
2022-09-16T17:24:20.702Z,39.95
2022-09-16T17:26:48.307Z,40.29
2022-09-16T17:29:16.181Z,41.02
2022-09-16T17:31:44.068Z,40.38
2022-09-16T17:34:13.248Z,41.08
2022-09-16T17:36:45.876Z,41.73
2022-09-16T17:39:18.843Z,41.70
2022-09-16T17:41:48.728Z,41.72
2022-09-16T17:44:16.848Z,41.34
2022-09-16T17:46:45.103Z,42.52
2022-09-16T17:49:21.625Z,42.55
2022-09-16T17:51:49.533Z,41.95
2022-09-16T17:54:16.156Z,42.85
2022-09-16T17:56:43.495Z,42.85
2022-09-16T17:59:11.735Z,42.90
2022-09-16T18:01:38.857Z,43.35
2022-09-16T18:04:05.709Z,42.82
2022-09-16T18:06:39.180Z,42.81
2022-09-16T18:09:09.633Z,42.75
2022-09-16T18:11:37.538Z,43.51
2022-09-16T18:14:05.282Z,43.94
2022-09-16T18:16:32.115Z,43.92
2022-09-16T18:19:00.654Z,44.81
2022-09-16T18:21:28.299Z,44.89
2022-09-16T18:24:00.275Z,45.16
2022-09-16T18:26:27.699Z,44.83
2022-09-16T18:29:12.648Z,44.88
2022-09-16T18:31:46.051Z,44.80
2022-09-16T18:34:13.944Z,44.61
2022-09-16T18:36:41.308Z,45.04
2022-09-16T18:39:13.279Z,45.70
2022-09-16T18:41:41.690Z,45.39
2022-09-16T18:44:20.164Z,46.08
2022-09-16T18:46:47.430Z,45.33
2022-09-16T18:49:16.278Z,45.73
2022-09-16T18:51:51.717Z,45.90
2022-09-16T18:54:25.968Z,45.83
2022-09-16T18:56:55.922Z,45.59
2022-09-16T18:59:27.696Z,45.61
2022-09-16T19:01:57.074Z,45.81
2022-09-16T19:04:26.910Z,46.10
2022-09-16T19:06:55.766Z,46.75
2022-09-16T19:09:24.150Z,47.19
2022-09-16T19:11:55.334Z,47.33
2022-09-16T19:14:24.862Z,47.79
2022-09-16T19:16:52.131Z,48.21
2022-09-16T19:19:19.539Z,48.31
2022-09-16T19:21:47.317Z,49.34
2022-09-16T19:24:19.984Z,49.43
2022-09-16T19:26:47.697Z,49.32
2022-09-16T19:29:15.660Z,49.78
2022-09-16T19:31:42.932Z,50.45
2022-09-16T19:34:11.186Z,49.91
2022-09-16T19:36:38.764Z,50.02
2022-09-16T19:39:06.843Z,50.31
2022-09-16T19:41:36.163Z,49.48
2022-09-16T19:44:05.855Z,49.76
2022-09-16T19:46:37.643Z,49.41
2022-09-16T19:49:06.271Z,49.20
2022-09-16T19:51:33.320Z,49.33
2022-09-16T19:54:00.983Z,50.05
2022-09-16T19:56:31.585Z,50.80
2022-09-16T19:58:59.158Z,50.59
2022-09-16T20:01:31.920Z,50.52
2022-09-16T20:03:59.662Z,49.90
2022-09-16T20:06:34.982Z,50.37
2022-09-16T20:09:03.368Z,49.88
2022-09-16T20:11:32.839Z,49.69
2022-09-16T20:14:05.509Z,49.27
2022-09-16T20:16:35.862Z,49.83
2022-09-16T20:19:08.367Z,50.49
2022-09-16T20:21:35.783Z,50.41
2022-09-16T20:24:05.905Z,51.21
2022-09-16T20:26:33.083Z,51.49
2022-09-16T20:29:00.372Z,51.42
2022-09-16T20:31:31.079Z,51.66
2022-09-16T20:33:58.793Z,51.34
2022-09-16T20:36:28.050Z,51.19
2022-09-16T20:38:54.722Z,53.13
2022-09-16T20:41:26.768Z,53.96
2022-09-16T20:43:53.884Z,53.98
2022-09-16T20:46:39.004Z,52.88
2022-09-16T20:49:09.482Z,53.12
2022-09-16T20:51:36.713Z,54.76
2022-09-16T20:54:14.886Z,54.63
2022-09-16T20:56:44.294Z,55.09
2022-09-16T20:59:14.082Z,55.45
2022-09-16T21:01:42.065Z,55.62
2022-09-16T21:04:14.258Z,56.03
2022-09-16T21:06:41.691Z,55.94
2022-09-16T21:09:10.787Z,55.76
2022-09-16T21:11:44.821Z,55.58
2022-09-16T21:14:15.423Z,56.43
2022-09-16T21:16:45.623Z,55.39
2022-09-16T21:19:13.500Z,56.31
2022-09-16T21:21:44.279Z,57.99
2022-09-16T21:24:11.217Z,57.69
2022-09-16T21:26:40.593Z,58.63
2022-09-16T21:29:11.066Z,59.50
2022-09-16T21:31:39.955Z,60.28
2022-09-16T21:34:10.803Z,58.97
2022-09-16T21:36:39.921Z,58.96
2022-09-16T21:39:08.029Z,59.17
2022-09-16T21:41:34.725Z,58.46
2022-09-16T21:44:01.673Z,58.36
2022-09-16T21:46:32.399Z,58.54
2022-09-16T21:49:02.256Z,58.70
2022-09-16T21:51:36.086Z,58.64
2022-09-16T21:54:05.268Z,59.06
2022-09-16T21:56:32.353Z,59.03
2022-09-16T21:58:59.398Z,60.95
2022-09-16T22:01:30.348Z,61.91
2022-09-16T22:03:58.542Z,61.17
2022-09-16T22:06:26.273Z,61.09
2022-09-16T22:08:54.650Z,60.26
2022-09-16T22:11:26.359Z,60.21
2022-09-16T22:13:54.086Z,59.41
2022-09-16T22:16:26.985Z,60.82
2022-09-16T22:18:55.515Z,60.48
2022-09-16T22:21:23.806Z,62.05
2022-09-16T22:23:51.281Z,63.03
2022-09-16T22:26:19.841Z,63.21
2022-09-16T22:28:47.148Z,63.98
2022-09-16T22:31:20.927Z,63.76
2022-09-16T22:33:49.070Z,63.37
2022-09-16T22:36:17.561Z,63.15
2022-09-16T22:38:48.699Z,64.01
2022-09-16T22:41:17.614Z,63.98
2022-09-16T22:43:47.172Z,63.61
2022-09-16T22:46:26.107Z,63.52
2022-09-16T22:48:56.211Z,64.51
2022-09-16T22:51:24.034Z,64.94
2022-09-16T22:53:51.401Z,64.94
2022-09-16T22:56:36.211Z,64.85
2022-09-16T22:59:05.007Z,63.18
2022-09-16T23:01:35.653Z,63.22
2022-09-16T23:04:04.233Z,63.05
2022-09-16T23:06:33.076Z,62.81
2022-09-16T23:09:00.590Z,63.02
2022-09-16T23:11:31.141Z,64.51
2022-09-16T23:13:59.027Z,64.90
2022-09-16T23:16:36.890Z,64.93
2022-09-16T23:19:08.570Z,64.75
2022-09-16T23:21:36.473Z,65.32
2022-09-16T23:24:05.025Z,65.77
2022-09-16T23:26:34.862Z,65.54
2022-09-16T23:29:03.344Z,65.26
2022-09-16T23:31:32.543Z,64.79
2022-09-16T23:33:59.982Z,66.16
2022-09-16T23:36:27.842Z,67.60
2022-09-16T23:38:55.138Z,68.47
2022-09-16T23:41:27.654Z,69.38
2022-09-16T23:43:56.295Z,70.58
2022-09-16T23:46:26.225Z,71.44
2022-09-16T23:48:53.139Z,71.48
2022-09-16T23:51:24.742Z,71.33
2022-09-16T23:53:55.206Z,72.00
2022-09-16T23:56:22.148Z,73.00
2022-09-16T23:58:49.443Z,74.56
